ESNU/UME METAR and TAF weather

Enter ICAO airport designator
Station Type Date Time Source
ESNU METAR 2021/09/23 17:50 UTC NOAA

ESNU 231750Z 12015KT 9999 -RA BKN010 OVC016 08/07 Q0990 RERA


Station Type Date Time Source
ESNU Decoded METAR 2021/09/23 17:50 UTC NOAA

Umea Flygplats, Sweden (ESNU) 63-48N 020-17E 14M
Sep 23, 2021 - 01:50 PM EDT / 2021.09.23 1750 UTC
Wind: from the ESE (120 degrees) at 17 MPH (15 KT):0
Visibility: greater than 7 mile(s):0
Sky conditions: overcast
Weather: light rain
Temperature: 46 F (8 C)
Dew Point: 44 F (7 C)
Relative Humidity: 93%
Pressure (altimeter): 29.23 in. Hg (0990 hPa)
ob: ESNU 231750Z 12015KT 9999 -RA BKN010 OVC016 08/07 Q0990 RERA
cycle: 18

Station Type Date Time Source
ESNU TAF 2019/10/24 00:55 UTC NOAA

TAF
AMD ESNU 242348Z 2500/2524 16003KT 0200 FG VV002 PROB40 2500/2509 8000 -RA BKN005

Example: see airport list